Terminal Aerodrome Forecast
Issued by NWS Jackson, MS

Home | Current Version | Previous Version | Text Only | Print | Product List | Glossary On
Versions: 1 2 3 4 5 6 7 8 9 10 11 12 13 14 15
302
FTUS44 KJAN 301120
TAFGWO
TAF
KGWO 301120Z 3012/0112 15010KT P6SM SCT015
     FM301600 15015G24KT 6SM -SHRA VCTS OVC040CB
     FM301900 15015G27KT P6SM VCTS OVC070CB
     FM302100 15011KT P6SM BKN060
     FM010000 14006KT P6SM BKN040
     FM011000 16008KT 5SM BR OVC020=

USA.gov is the U.S. government's official web portal to all federal, state and local government web resources and services.